sensor_id;sensor_type;location;lat;lon;timestamp;pressure;altitude;pressure_sealevel;temperature;humidity
62849;BME280;48941;49.516;8.286;2022-12-04T00:00:34;100264.63;;;2.47;91.55
62849;BME280;48941;49.516;8.286;2022-12-04T00:03:02;100271.59;;;2.48;91.21
62849;BME280;48941;49.516;8.286;2022-12-04T00:05:30;100277.72;;;2.48;90.97
62849;BME280;48941;49.516;8.286;2022-12-04T00:07:58;100272.75;;;2.42;91.23
62849;BME280;48941;49.516;8.286;2022-12-04T00:10:26;100266.72;;;2.40;91.25
62849;BME280;48941;49.516;8.286;2022-12-04T00:12:55;100282.38;;;2.42;91.12
62849;BME280;48941;49.516;8.286;2022-12-04T00:15:24;100282.63;;;2.37;90.99
62849;BME280;48941;49.516;8.286;2022-12-04T00:17:52;100271.97;;;2.40;91.05
62849;BME280;48941;49.516;8.286;2022-12-04T00:20:20;100280.06;;;2.35;90.86
62849;BME280;48941;49.516;8.286;2022-12-04T00:22:49;100270.41;;;2.36;90.90
62849;BME280;48941;49.516;8.286;2022-12-04T00:25:17;100276.59;;;2.35;90.56
62849;BME280;48941;49.516;8.286;2022-12-04T00:27:45;100284.63;;;2.32;91.16
62849;BME280;48941;49.516;8.286;2022-12-04T00:30:14;100281.06;;;2.33;91.08
62849;BME280;48941;49.516;8.286;2022-12-04T00:32:42;100280.22;;;2.32;91.02
62849;BME280;48941;49.516;8.286;2022-12-04T00:35:09;100271.63;;;2.29;90.84
62849;BME280;48941;49.516;8.286;2022-12-04T00:37:37;100267.31;;;2.28;90.80
62849;BME280;48941;49.516;8.286;2022-12-04T00:40:06;100260.19;;;2.30;91.04
62849;BME280;48941;49.516;8.286;2022-12-04T00:42:34;100252.16;;;2.33;90.94
62849;BME280;48941;49.516;8.286;2022-12-04T00:45:02;100260.97;;;2.32;91.24
62849;BME280;48941;49.516;8.286;2022-12-04T00:47:31;100258.34;;;2.32;91.09
62849;BME280;48941;49.516;8.286;2022-12-04T00:49:59;100253.88;;;2.34;91.08
62849;BME280;48941;49.516;8.286;2022-12-04T00:52:28;100252.31;;;2.30;91.35
62849;BME280;48941;49.516;8.286;2022-12-04T00:54:56;100245.28;;;2.30;91.70
62849;BME280;48941;49.516;8.286;2022-12-04T00:57:23;100238.22;;;2.31;91.24
62849;BME280;48941;49.516;8.286;2022-12-04T00:59:52;100233.97;;;2.28;91.23
62849;BME280;48941;49.516;8.286;2022-12-04T01:02:20;100235.66;;;2.29;91.37
62849;BME280;48941;49.516;8.286;2022-12-04T01:04:49;100240.31;;;2.24;91.25
62849;BME280;48941;49.516;8.286;2022-12-04T01:07:17;100231.41;;;2.27;91.43
62849;BME280;48941;49.516;8.286;2022-12-04T01:09:45;100230.56;;;2.26;91.34
62849;BME280;48941;49.516;8.286;2022-12-04T01:12:12;100225.47;;;2.23;91.94
62849;BME280;48941;49.516;8.286;2022-12-04T01:14:46;100237.75;;;2.23;91.94
62849;BME280;48941;49.516;8.286;2022-12-04T01:17:14;100242.16;;;2.22;92.54
62849;BME280;48941;49.516;8.286;2022-12-04T01:19:42;100244.63;;;2.25;91.59
62849;BME280;48941;49.516;8.286;2022-12-04T01:22:11;100248.13;;;2.26;91.64
62849;BME280;48941;49.516;8.286;2022-12-04T01:24:39;100245.78;;;2.19;91.32
62849;BME280;48941;49.516;8.286;2022-12-04T01:27:07;100248.34;;;2.21;91.69
62849;BME280;48941;49.516;8.286;2022-12-04T01:29:34;100246.53;;;2.22;91.79
62849;BME280;48941;49.516;8.286;2022-12-04T01:32:02;100241.22;;;2.23;91.65
62849;BME280;48941;49.516;8.286;2022-12-04T01:34:30;100259.69;;;2.22;91.62
62849;BME280;48941;49.516;8.286;2022-12-04T01:36:58;100261.47;;;2.21;91.77
62849;BME280;48941;49.516;8.286;2022-12-04T01:39:27;100254.59;;;2.18;91.47
62849;BME280;48941;49.516;8.286;2022-12-04T01:41:55;100250.25;;;2.17;91.02
62849;BME280;48941;49.516;8.286;2022-12-04T01:44:24;100257.22;;;2.18;90.74
62849;BME280;48941;49.516;8.286;2022-12-04T01:46:53;100256.38;;;2.18;91.03
62849;BME280;48941;49.516;8.286;2022-12-04T01:49:24;100259.00;;;2.18;91.28
62849;BME280;48941;49.516;8.286;2022-12-04T01:51:58;100260.91;;;2.14;91.02
62849;BME280;48941;49.516;8.286;2022-12-04T01:54:30;100255.72;;;2.13;90.95
62849;BME280;48941;49.516;8.286;2022-12-04T01:57:02;100254.03;;;2.12;91.35
62849;BME280;48941;49.516;8.286;2022-12-04T01:59:37;100254.03;;;2.12;91.45
62849;BME280;48941;49.516;8.286;2022-12-04T02:02:09;100254.88;;;2.12;91.48
62849;BME280;48941;49.516;8.286;2022-12-04T02:04:39;100259.28;;;2.12;91.86
62849;BME280;48941;49.516;8.286;2022-12-04T02:07:07;100258.41;;;2.11;92.22
62849;BME280;48941;49.516;8.286;2022-12-04T02:09:37;100261.06;;;2.11;91.45
62849;BME280;48941;49.516;8.286;2022-12-04T02:12:10;100252.50;;;2.08;91.97
62849;BME280;48941;49.516;8.286;2022-12-04T02:14:46;100256.88;;;2.07;91.86
62849;BME280;48941;49.516;8.286;2022-12-04T02:17:21;100248.97;;;2.07;92.31
62849;BME280;48941;49.516;8.286;2022-12-04T02:19:59;100255.91;;;2.10;93.06
62849;BME280;48941;49.516;8.286;2022-12-04T02:22:44;100262.84;;;2.11;92.93
62849;BME280;48941;49.516;8.286;2022-12-04T02:25:23;100258.28;;;2.14;92.85
62849;BME280;48941;49.516;8.286;2022-12-04T02:28:07;100253.25;;;2.10;92.87
62849;BME280;48941;49.516;8.286;2022-12-04T02:30:40;100249.84;;;2.08;92.58
62849;BME280;48941;49.516;8.286;2022-12-04T02:33:16;100262.06;;;2.09;92.28
62849;BME280;48941;49.516;8.286;2022-12-04T02:35:47;100243.66;;;2.09;92.14
62849;BME280;48941;49.516;8.286;2022-12-04T02:38:23;100252.56;;;2.06;91.82
62849;BME280;48941;49.516;8.286;2022-12-04T02:40:57;100252.56;;;2.06;92.07
62849;BME280;48941;49.516;8.286;2022-12-04T02:43:31;100259.66;;;2.04;92.67
62849;BME280;48941;49.516;8.286;2022-12-04T02:46:03;100260.50;;;2.05;92.74
62849;BME280;48941;49.516;8.286;2022-12-04T02:48:35;100255.25;;;2.05;92.60
62849;BME280;48941;49.516;8.286;2022-12-04T02:51:09;100245.56;;;2.05;92.29
62849;BME280;48941;49.516;8.286;2022-12-04T02:53:41;100249.84;;;2.08;92.28
62849;BME280;48941;49.516;8.286;2022-12-04T02:56:11;100253.41;;;2.07;91.96
62849;BME280;48941;49.516;8.286;2022-12-04T02:58:45;100254.25;;;2.07;91.98
62849;BME280;48941;49.516;8.286;2022-12-04T03:01:16;100240.19;;;2.08;92.41
62849;BME280;48941;49.516;8.286;2022-12-04T03:03:49;100239.41;;;2.06;92.81
62849;BME280;48941;49.516;8.286;2022-12-04T03:06:21;100229.88;;;2.04;92.83
62849;BME280;48941;49.516;8.286;2022-12-04T03:08:55;100228.97;;;2.05;92.92
62849;BME280;48941;49.516;8.286;2022-12-04T03:11:27;100226.56;;;2.00;92.49
62849;BME280;48941;49.516;8.286;2022-12-04T03:14:00;100224.63;;;2.04;92.51
62849;BME280;48941;49.516;8.286;2022-12-04T03:16:34;100216.19;;;1.97;92.51
62849;BME280;48941;49.516;8.286;2022-12-04T03:19:09;100214.56;;;1.94;92.55
62849;BME280;48941;49.516;8.286;2022-12-04T03:21:43;100218.81;;;1.97;92.40
62849;BME280;48941;49.516;8.286;2022-12-04T03:24:17;100220.66;;;1.95;91.95
62849;BME280;48941;49.516;8.286;2022-12-04T03:26:51;100226.69;;;1.97;92.36
62849;BME280;48941;49.516;8.286;2022-12-04T03:29:26;100226.69;;;1.97;92.45
62849;BME280;48941;49.516;8.286;2022-12-04T03:32:03;100236.19;;;1.99;92.81
62849;BME280;48941;49.516;8.286;2022-12-04T03:34:37;100233.50;;;2.01;92.49
62849;BME280;48941;49.516;8.286;2022-12-04T03:37:09;100233.50;;;2.01;92.52
62849;BME280;48941;49.516;8.286;2022-12-04T03:39:46;100229.19;;;2.00;92.64
62849;BME280;48941;49.516;8.286;2022-12-04T03:42:21;100223.84;;;2.02;92.50
62849;BME280;48941;49.516;8.286;2022-12-04T03:44:57;100221.44;;;1.97;91.88
62849;BME280;48941;49.516;8.286;2022-12-04T03:47:30;100222.28;;;1.97;92.34
62849;BME280;48941;49.516;8.286;2022-12-04T03:50:03;100214.13;;;2.04;92.05
62849;BME280;48941;49.516;8.286;2022-12-04T03:52:37;100212.50;;;2.01;92.29
62849;BME280;48941;49.516;8.286;2022-12-04T03:55:14;100213.34;;;2.02;92.47
62849;BME280;48941;49.516;8.286;2022-12-04T03:57:43;100215.97;;;2.02;92.47
62849;BME280;48941;49.516;8.286;2022-12-04T04:00:15;100224.00;;;1.98;92.49
62849;BME280;48941;49.516;8.286;2022-12-04T04:02:47;100221.38;;;1.98;92.33
62849;BME280;48941;49.516;8.286;2022-12-04T04:05:16;100210.88;;;1.98;92.28
62849;BME280;48941;49.516;8.286;2022-12-04T04:07:47;100209.88;;;2.01;92.52
62849;BME280;48941;49.516;8.286;2022-12-04T04:10:19;100209.88;;;2.01;92.58
62849;BME280;48941;49.516;8.286;2022-12-04T04:12:50;100212.50;;;2.01;92.89
62849;BME280;48941;49.516;8.286;2022-12-04T04:15:43;100208.03;;;2.03;92.76
62849;BME280;48941;49.516;8.286;2022-12-04T04:18:30;100213.16;;;2.06;92.90
62849;BME280;48941;49.516;8.286;2022-12-04T04:21:21;100195.59;;;2.07;93.25
62849;BME280;48941;49.516;8.286;2022-12-04T04:24:10;100203.53;;;2.05;93.52
62849;BME280;48941;49.516;8.286;2022-12-04T04:26:46;100203.53;;;2.05;93.87
62849;BME280;48941;49.516;8.286;2022-12-04T04:29:16;100202.56;;;2.08;93.90
62849;BME280;48941;49.516;8.286;2022-12-04T04:31:49;100202.63;;;2.06;93.77
62849;BME280;48941;49.516;8.286;2022-12-04T04:34:23;100201.84;;;2.04;93.27
62849;BME280;48941;49.516;8.286;2022-12-04T04:37:00;100199.22;;;2.04;93.24
62849;BME280;48941;49.516;8.286;2022-12-04T04:39:33;100194.81;;;2.05;93.76
62849;BME280;48941;49.516;8.286;2022-12-04T04:42:06;100195.53;;;2.08;93.67
62849;BME280;48941;49.516;8.286;2022-12-04T04:44:40;100192.84;;;2.10;93.73
62849;BME280;48941;49.516;8.286;2022-12-04T04:47:24;100200.63;;;2.11;93.53
62849;BME280;48941;49.516;8.286;2022-12-04T04:49:54;100202.41;;;2.11;93.55
62849;BME280;48941;49.516;8.286;2022-12-04T04:52:23;100204.13;;;2.12;93.17
62849;BME280;48941;49.516;8.286;2022-12-04T04:54:51;100193.69;;;2.10;92.87
62849;BME280;48941;49.516;8.286;2022-12-04T04:57:27;100204.19;;;2.10;93.12
62849;BME280;48941;49.516;8.286;2022-12-04T04:59:55;100208.44;;;2.13;93.71
62849;BME280;48941;49.516;8.286;2022-12-04T05:02:25;100215.31;;;2.15;93.23
62849;BME280;48941;49.516;8.286;2022-12-04T05:04:54;100219.66;;;2.16;93.76
62849;BME280;48941;49.516;8.286;2022-12-04T05:07:22;100221.34;;;2.17;93.61
62849;BME280;48941;49.516;8.286;2022-12-04T05:09:49;100224.84;;;2.18;94.07
62849;BME280;48941;49.516;8.286;2022-12-04T05:12:17;100228.31;;;2.18;93.99
62849;BME280;48941;49.516;8.286;2022-12-04T05:14:45;100225.63;;;2.20;94.11
62849;BME280;48941;49.516;8.286;2022-12-04T05:17:14;100226.47;;;2.21;93.96
62849;BME280;48941;49.516;8.286;2022-12-04T05:19:43;100227.16;;;2.24;94.05
62849;BME280;48941;49.516;8.286;2022-12-04T05:22:21;100217.56;;;2.23;94.05
62849;BME280;48941;49.516;8.286;2022-12-04T05:24:49;100216.66;;;2.24;94.33
62849;BME280;48941;49.516;8.286;2022-12-04T05:27:17;100213.88;;;2.27;94.10
62849;BME280;48941;49.516;8.286;2022-12-04T05:29:45;100210.53;;;2.24;94.15
62849;BME280;48941;49.516;8.286;2022-12-04T05:32:13;100223.47;;;2.28;94.11
62849;BME280;48941;49.516;8.286;2022-12-04T05:34:42;100223.59;;;2.25;94.13
62849;BME280;48941;49.516;8.286;2022-12-04T05:37:11;100219.13;;;2.27;94.32
62849;BME280;48941;49.516;8.286;2022-12-04T05:39:38;100217.44;;;2.26;94.31
62849;BME280;48941;49.516;8.286;2022-12-04T05:42:06;100216.59;;;2.26;94.28
62849;BME280;48941;49.516;8.286;2022-12-04T05:44:34;100218.22;;;2.28;94.67
62849;BME280;48941;49.516;8.286;2022-12-04T05:47:02;100212.13;;;2.28;94.75
62849;BME280;48941;49.516;8.286;2022-12-04T05:49:30;100216.19;;;2.33;94.82
62849;BME280;48941;49.516;8.286;2022-12-04T05:51:58;100217.97;;;2.33;94.50
62849;BME280;48941;49.516;8.286;2022-12-04T05:54:28;100217.97;;;2.33;94.46
62849;BME280;48941;49.516;8.286;2022-12-04T05:56:55;100219.91;;;2.29;94.67
62849;BME280;48941;49.516;8.286;2022-12-04T05:59:23;100218.22;;;2.28;94.79
62849;BME280;48941;49.516;8.286;2022-12-04T06:01:51;100218.28;;;2.27;94.65
62849;BME280;48941;49.516;8.286;2022-12-04T06:04:19;100223.53;;;2.27;94.71
62849;BME280;48941;49.516;8.286;2022-12-04T06:06:47;100224.31;;;2.29;94.67
62849;BME280;48941;49.516;8.286;2022-12-04T06:09:14;100223.31;;;2.31;94.43
62849;BME280;48941;49.516;8.286;2022-12-04T06:11:44;100223.88;;;2.38;94.26
62849;BME280;48941;49.516;8.286;2022-12-04T06:14:13;100234.22;;;2.41;94.45
62849;BME280;48941;49.516;8.286;2022-12-04T06:16:43;100234.22;;;2.41;94.58
62849;BME280;48941;49.516;8.286;2022-12-04T06:19:14;100234.47;;;2.36;95.10
62849;BME280;48941;49.516;8.286;2022-12-04T06:21:44;100229.34;;;2.33;95.28
62849;BME280;48941;49.516;8.286;2022-12-04T06:24:14;100234.09;;;2.44;95.24
62849;BME280;48941;49.516;8.286;2022-12-04T06:26:43;100229.69;;;2.45;94.61
62849;BME280;48941;49.516;8.286;2022-12-04T06:29:31;100213.25;;;2.39;94.70
62849;BME280;48941;49.516;8.286;2022-12-04T06:31:59;100222.09;;;2.38;95.17
62849;BME280;48941;49.516;8.286;2022-12-04T06:34:27;100214.34;;;2.35;95.11
62849;BME280;48941;49.516;8.286;2022-12-04T06:36:55;100219.53;;;2.37;94.98
62849;BME280;48941;49.516;8.286;2022-12-04T06:39:23;100216.97;;;2.35;95.23
62849;BME280;48941;49.516;8.286;2022-12-04T06:41:52;100215.28;;;2.34;95.33
62849;BME280;48941;49.516;8.286;2022-12-04T06:44:19;100219.75;;;2.32;95.64
62849;BME280;48941;49.516;8.286;2022-12-04T06:46:48;100218.06;;;2.31;95.91
62849;BME280;48941;49.516;8.286;2022-12-04T06:49:15;100220.47;;;2.36;95.78
62849;BME280;48941;49.516;8.286;2022-12-04T06:51:48;100224.00;;;2.35;95.70
62849;BME280;48941;49.516;8.286;2022-12-04T06:54:15;100216.00;;;2.38;95.61
62849;BME280;48941;49.516;8.286;2022-12-04T06:56:43;100207.34;;;2.36;95.66
62849;BME280;48941;49.516;8.286;2022-12-04T06:59:12;100213.44;;;2.36;95.95
62849;BME280;48941;49.516;8.286;2022-12-04T07:01:40;100209.97;;;2.36;96.33
62849;BME280;48941;49.516;8.286;2022-12-04T07:04:08;100208.19;;;2.36;96.50
62849;BME280;48941;49.516;8.286;2022-12-04T07:06:37;100220.53;;;2.34;96.42
62849;BME280;48941;49.516;8.286;2022-12-04T07:09:07;100208.47;;;2.30;96.74
62849;BME280;48941;49.516;8.286;2022-12-04T07:11:37;100207.34;;;2.36;96.85
62849;BME280;48941;49.516;8.286;2022-12-04T07:14:05;100212.66;;;2.34;96.37
62849;BME280;48941;49.516;8.286;2022-12-04T07:16:34;100217.06;;;2.34;96.65
62849;BME280;48941;49.516;8.286;2022-12-04T07:19:07;100210.88;;;2.35;96.64
62849;BME280;48941;49.516;8.286;2022-12-04T07:21:34;100217.06;;;2.34;96.70
62849;BME280;48941;49.516;8.286;2022-12-04T07:24:03;100217.91;;;2.34;96.62
62849;BME280;48941;49.516;8.286;2022-12-04T07:26:31;100217.06;;;2.34;96.63
62849;BME280;48941;49.516;8.286;2022-12-04T07:28:59;100227.34;;;2.38;96.21
62849;BME280;48941;49.516;8.286;2022-12-04T07:31:28;100216.59;;;2.43;96.22
62849;BME280;48941;49.516;8.286;2022-12-04T07:33:58;100219.03;;;2.48;96.27
62849;BME280;48941;49.516;8.286;2022-12-04T07:36:26;100222.88;;;2.41;95.91
62849;BME280;48941;49.516;8.286;2022-12-04T07:38:54;100209.03;;;2.37;96.32
62849;BME280;48941;49.516;8.286;2022-12-04T07:41:23;100216.47;;;2.46;96.48
62849;BME280;48941;49.516;8.286;2022-12-04T07:43:51;100222.56;;;2.47;96.13
62849;BME280;48941;49.516;8.286;2022-12-04T07:46:21;100228.06;;;2.42;96.25
62849;BME280;48941;49.516;8.286;2022-12-04T07:48:50;100220.16;;;2.42;96.60
62849;BME280;48941;49.516;8.286;2022-12-04T07:51:21;100215.69;;;2.44;96.77
62849;BME280;48941;49.516;8.286;2022-12-04T07:53:50;100223.66;;;2.43;96.57
62849;BME280;48941;49.516;8.286;2022-12-04T07:56:19;100223.78;;;2.39;96.56
62849;BME280;48941;49.516;8.286;2022-12-04T07:58:47;100216.53;;;2.45;96.73
62849;BME280;48941;49.516;8.286;2022-12-04T08:01:17;100211.28;;;2.45;96.57
62849;BME280;48941;49.516;8.286;2022-12-04T08:03:46;100211.19;;;2.46;96.48
62849;BME280;48941;49.516;8.286;2022-12-04T08:06:15;100215.69;;;2.44;96.54
62849;BME280;48941;49.516;8.286;2022-12-04T08:08:45;100222.88;;;2.41;96.49
62849;BME280;48941;49.516;8.286;2022-12-04T08:11:15;100212.13;;;2.45;96.79
62849;BME280;48941;49.516;8.286;2022-12-04T08:13:44;100224.50;;;2.43;96.79
62849;BME280;48941;49.516;8.286;2022-12-04T08:16:12;100230.38;;;2.48;97.06
62849;BME280;48941;49.516;8.286;2022-12-04T08:18:41;100220.78;;;2.47;97.52
62849;BME280;48941;49.516;8.286;2022-12-04T08:21:13;100218.94;;;2.49;97.98
62849;BME280;48941;49.516;8.286;2022-12-04T08:23:42;100215.44;;;2.49;98.41
62849;BME280;48941;49.516;8.286;2022-12-04T08:26:12;100214.69;;;2.47;98.59
62849;BME280;48941;49.516;8.286;2022-12-04T08:28:40;100219.16;;;2.45;98.67
62849;BME280;48941;49.516;8.286;2022-12-04T08:31:11;100209.41;;;2.47;98.59
62849;BME280;48941;49.516;8.286;2022-12-04T08:33:40;100213.97;;;2.43;98.94
62849;BME280;48941;49.516;8.286;2022-12-04T08:36:09;100210.25;;;2.47;98.11
62849;BME280;48941;49.516;8.286;2022-12-04T08:38:38;100206.09;;;2.43;97.88
62849;BME280;48941;49.516;8.286;2022-12-04T08:41:07;100209.72;;;2.41;98.04
62849;BME280;48941;49.516;8.286;2022-12-04T08:43:37;100211.28;;;2.45;97.55
62849;BME280;48941;49.516;8.286;2022-12-04T08:46:06;100225.72;;;2.36;98.00
62849;BME280;48941;49.516;8.286;2022-12-04T08:48:35;100227.78;;;2.29;98.33
62849;BME280;48941;49.516;8.286;2022-12-04T08:51:04;100227.72;;;2.31;98.35
62849;BME280;48941;49.516;8.286;2022-12-04T08:53:34;100211.88;;;2.32;98.19
62849;BME280;48941;49.516;8.286;2022-12-04T08:56:03;100214.22;;;2.38;97.83
62849;BME280;48941;49.516;8.286;2022-12-04T08:58:31;100228.50;;;2.33;98.34
62849;BME280;48941;49.516;8.286;2022-12-04T09:01:04;100226.41;;;2.22;98.84
62849;BME280;48941;49.516;8.286;2022-12-04T09:03:33;100220.66;;;2.14;98.89
62849;BME280;48941;49.516;8.286;2022-12-04T09:06:03;100212.13;;;2.09;99.42
62849;BME280;48941;49.516;8.286;2022-12-04T09:08:31;100222.00;;;2.04;99.77
62849;BME280;48941;49.516;8.286;2022-12-04T09:11:02;100223.72;;;2.05;100.00
62849;BME280;48941;49.516;8.286;2022-12-04T09:13:31;100230.66;;;2.06;100.00
62849;BME280;48941;49.516;8.286;2022-12-04T09:16:01;100223.72;;;2.05;99.94
62849;BME280;48941;49.516;8.286;2022-12-04T09:18:30;100216.69;;;2.05;100.00
62849;BME280;48941;49.516;8.286;2022-12-04T09:21:00;100217.63;;;2.04;99.82
62849;BME280;48941;49.516;8.286;2022-12-04T09:23:31;100219.47;;;2.02;99.40
62849;BME280;48941;49.516;8.286;2022-12-04T09:26:00;100217.91;;;1.98;99.79
62849;BME280;48941;49.516;8.286;2022-12-04T09:28:28;100222.94;;;2.03;100.00
62849;BME280;48941;49.516;8.286;2022-12-04T09:30:56;100221.03;;;2.06;100.00
62849;BME280;48941;49.516;8.286;2022-12-04T09:33:25;100226.28;;;2.06;100.00
62849;BME280;48941;49.516;8.286;2022-12-04T09:35:55;100227.66;;;2.13;100.00
62849;BME280;48941;49.516;8.286;2022-12-04T09:38:25;100236.50;;;2.12;99.87
62849;BME280;48941;49.516;8.286;2022-12-04T09:41:00;100231.00;;;2.17;99.66
62849;BME280;48941;49.516;8.286;2022-12-04T09:43:32;100226.47;;;2.21;99.90
62849;BME280;48941;49.516;8.286;2022-12-04T09:46:06;100227.38;;;2.19;99.61
62849;BME280;48941;49.516;8.286;2022-12-04T09:48:38;100233.50;;;2.20;99.72
62849;BME280;48941;49.516;8.286;2022-12-04T09:51:10;100227.88;;;2.28;99.42
62849;BME280;48941;49.516;8.286;2022-12-04T09:53:46;100232.25;;;2.27;99.25
62849;BME280;48941;49.516;8.286;2022-12-04T09:56:17;100231.19;;;2.31;99.16
62849;BME280;48941;49.516;8.286;2022-12-04T09:58:48;100223.16;;;2.34;99.40
62849;BME280;48941;49.516;8.286;2022-12-04T10:01:21;100227.59;;;2.34;99.26
62849;BME280;48941;49.516;8.286;2022-12-04T10:03:49;100226.56;;;2.36;99.21
62849;BME280;48941;49.516;8.286;2022-12-04T10:06:23;100213.25;;;2.39;99.10
62849;BME280;48941;49.516;8.286;2022-12-04T10:08:56;100207.81;;;2.44;98.37
62849;BME280;48941;49.516;8.286;2022-12-04T10:11:35;100210.88;;;2.35;98.28
62849;BME280;48941;49.516;8.286;2022-12-04T10:20:07;100193.41;;;2.51;98.24
62849;BME280;48941;49.516;8.286;2022-12-04T10:22:47;100201.09;;;2.56;97.74
62849;BME280;48941;49.516;8.286;2022-12-04T10:25:20;100200.22;;;2.55;97.66
62849;BME280;48941;49.516;8.286;2022-12-04T10:27:52;100196.75;;;2.55;97.62
62849;BME280;48941;49.516;8.286;2022-12-04T10:30:23;100194.03;;;2.56;97.61
62849;BME280;48941;49.516;8.286;2022-12-04T10:32:56;100185.91;;;2.61;97.52
62849;BME280;48941;49.516;8.286;2022-12-04T10:35:27;100180.66;;;2.61;97.64
62849;BME280;48941;49.516;8.286;2022-12-04T10:37:59;100166.59;;;2.62;97.19
62849;BME280;48941;49.516;8.286;2022-12-04T10:40:30;100167.28;;;2.66;97.57
62849;BME280;48941;49.516;8.286;2022-12-04T10:43:04;100161.47;;;2.59;97.12
62849;BME280;48941;49.516;8.286;2022-12-04T10:45:38;100155.16;;;2.46;97.35
62849;BME280;48941;49.516;8.286;2022-12-04T10:48:06;100151.44;;;2.50;98.11
62849;BME280;48941;49.516;8.286;2022-12-04T10:50:40;100156.78;;;2.48;97.57
62849;BME280;48941;49.516;8.286;2022-12-04T10:53:10;100157.69;;;2.47;97.88
62849;BME280;48941;49.516;8.286;2022-12-04T10:55:41;100157.31;;;2.55;97.96
62849;BME280;48941;49.516;8.286;2022-12-04T10:58:14;100161.47;;;2.59;97.87
62849;BME280;48941;49.516;8.286;2022-12-04T11:00:43;100167.44;;;2.63;97.33
62849;BME280;48941;49.516;8.286;2022-12-04T11:03:23;100163.25;;;2.58;97.20
62849;BME280;48941;49.516;8.286;2022-12-04T11:05:53;100154.59;;;2.56;97.52
62849;BME280;48941;49.516;8.286;2022-12-04T11:08:26;100147.41;;;2.60;97.60
62849;BME280;48941;49.516;8.286;2022-12-04T11:10:59;100157.31;;;2.55;97.66
62849;BME280;48941;49.516;8.286;2022-12-04T11:13:28;100162.25;;;2.44;98.10
62849;BME280;48941;49.516;8.286;2022-12-04T11:15:57;100150.34;;;2.54;98.39
62849;BME280;48941;49.516;8.286;2022-12-04T11:18:28;100144.41;;;2.50;98.21
62849;BME280;48941;49.516;8.286;2022-12-04T11:20:57;100147.81;;;2.52;97.53
62849;BME280;48941;49.516;8.286;2022-12-04T11:23:30;100139.75;;;2.55;98.03
62849;BME280;48941;49.516;8.286;2022-12-04T11:25:59;100148.56;;;2.54;98.24
62849;BME280;48941;49.516;8.286;2022-12-04T11:28:31;100138.81;;;2.56;97.97
62849;BME280;48941;49.516;8.286;2022-12-04T11:31:10;100147.09;;;2.49;97.83
62849;BME280;48941;49.516;8.286;2022-12-04T11:33:45;100157.63;;;2.49;98.07
62849;BME280;48941;49.516;8.286;2022-12-04T11:36:18;100149.72;;;2.49;98.26
62849;BME280;48941;49.516;8.286;2022-12-04T11:38:49;100157.84;;;2.44;98.23
62849;BME280;48941;49.516;8.286;2022-12-04T11:41:24;100160.00;;;2.53;98.27
62849;BME280;48941;49.516;8.286;2022-12-04T11:43:52;100163.72;;;2.49;98.38
62849;BME280;48941;49.516;8.286;2022-12-04T11:46:27;100161.41;;;2.61;98.19
62849;BME280;48941;49.516;8.286;2022-12-04T11:48:55;100153.38;;;2.64;98.18
62849;BME280;48941;49.516;8.286;2022-12-04T11:51:33;100166.66;;;2.61;97.66
62849;BME280;48941;49.516;8.286;2022-12-04T11:54:11;100162.63;;;2.53;98.00
62849;BME280;48941;49.516;8.286;2022-12-04T11:56:47;100168.31;;;2.46;98.28
62849;BME280;48941;49.516;8.286;2022-12-04T11:59:35;100173.31;;;2.50;98.59
62849;BME280;48941;49.516;8.286;2022-12-04T12:02:19;100171.47;;;2.52;98.62
62849;BME280;48941;49.516;8.286;2022-12-04T12:05:02;100169.22;;;2.62;98.48
62849;BME280;48941;49.516;8.286;2022-12-04T12:07:39;100167.44;;;2.63;99.27
62849;BME280;48941;49.516;8.286;2022-12-04T12:10:18;100161.94;;;2.67;98.71
62849;BME280;48941;49.516;8.286;2022-12-04T12:12:55;100161.88;;;2.69;98.76
62849;BME280;48941;49.516;8.286;2022-12-04T12:15:35;100163.78;;;2.65;99.02
62849;BME280;48941;49.516;8.286;2022-12-04T12:18:20;100146.31;;;2.64;99.30
62849;BME280;48941;49.516;8.286;2022-12-04T12:20:59;100163.78;;;2.65;99.41
62849;BME280;48941;49.516;8.286;2022-12-04T12:23:45;100161.41;;;2.61;99.71
62849;BME280;48941;49.516;8.286;2022-12-04T12:26:17;100163.25;;;2.58;100.00
62849;BME280;48941;49.516;8.286;2022-12-04T12:29:04;100158.31;;;2.52;100.00
62849;BME280;48941;49.516;8.286;2022-12-04T12:31:53;100154.91;;;2.50;100.00
62849;BME280;48941;49.516;8.286;2022-12-04T12:34:31;100143.38;;;2.53;100.00
62849;BME280;48941;49.516;8.286;2022-12-04T12:37:09;100158.00;;;2.58;100.00
62849;BME280;48941;49.516;8.286;2022-12-04T12:39:42;100157.84;;;2.62;100.00
62849;BME280;48941;49.516;8.286;2022-12-04T12:42:17;100156.47;;;2.54;100.00
62849;BME280;48941;49.516;8.286;2022-12-04T12:44:52;100158.31;;;2.52;100.00
62849;BME280;48941;49.516;8.286;2022-12-04T12:47:26;100158.91;;;2.57;100.00
62849;BME280;48941;49.516;8.286;2022-12-04T12:49:58;100157.16;;;2.58;100.00
62849;BME280;48941;49.516;8.286;2022-12-04T12:52:31;100159.03;;;2.56;100.00
62849;BME280;48941;49.516;8.286;2022-12-04T12:55:08;100153.84;;;2.54;100.00
62849;BME280;48941;49.516;8.286;2022-12-04T12:57:44;100149.47;;;2.53;100.00
62849;BME280;48941;49.516;8.286;2022-12-04T13:00:14;100142.84;;;2.64;100.00
62849;BME280;48941;49.516;8.286;2022-12-04T13:02:46;100142.75;;;2.65;100.00
62849;BME280;48941;49.516;8.286;2022-12-04T13:05:19;100136.91;;;2.60;100.00
62849;BME280;48941;49.516;8.286;2022-12-04T13:07:53;100135.09;;;2.61;100.00
62849;BME280;48941;49.516;8.286;2022-12-04T13:10:25;100128.00;;;2.63;100.00
62849;BME280;48941;49.516;8.286;2022-12-04T13:13:00;100115.63;;;2.65;100.00
62849;BME280;48941;49.516;8.286;2022-12-04T13:15:33;100111.97;;;2.67;100.00
62849;BME280;48941;49.516;8.286;2022-12-04T13:18:03;100107.16;;;2.75;100.00
62849;BME280;48941;49.516;8.286;2022-12-04T13:20:40;100103.16;;;2.68;100.00
62849;BME280;48941;49.516;8.286;2022-12-04T13:23:18;100091.56;;;2.72;100.00
62849;BME280;48941;49.516;8.286;2022-12-04T13:25:55;100087.13;;;2.73;100.00
62849;BME280;48941;49.516;8.286;2022-12-04T13:28:39;100080.59;;;2.64;100.00